Minneapolis, Minnesota
Traffic Map
Current Weather Conditions
Minneapolis, Minnesota
Few Clouds
Few Clouds
26°
Feels Like: 18°
Wind Chill: 18° Ceiling: Unl
Heat Index: 26° Visibility: 10mi
Dew Point: 17° Wind: 8mph
Humidity: 69% Direction: 170° (S)
Pressure: 30.24in Gusts: 0mph
Raw Report DataKMSP 310053Z 17007KT 10SM FEW080 M03/M08 A3024 RMK AO2 SLP256 T10331083
Traffic Incident Summary
Active as of:
Severity:
Category:
InformationThere was an issue retrieving the traffic information for this location. Please try a different location or try again shortly.
Advertisements
Track Severe Weather on mobile